createdAt,value
2019-02-23T08:45:50.926Z,12.20
2019-02-23T08:48:17.199Z,8.88
2019-02-23T08:50:43.460Z,9.08
2019-02-23T08:53:09.763Z,8.88
2019-02-23T08:55:36.080Z,8.63
2019-02-23T08:58:02.337Z,9.00
2019-02-23T09:00:28.888Z,9.58
2019-02-23T09:02:55.149Z,9.33
2019-02-23T09:05:21.453Z,9.60
2019-02-23T09:07:47.737Z,9.83
2019-02-23T09:10:14.332Z,9.80
2019-02-23T09:12:40.571Z,8.35
2019-02-23T09:15:08.024Z,8.50
2019-02-23T09:17:34.413Z,9.10
2019-02-23T09:20:00.661Z,8.70
2019-02-23T09:22:27.015Z,8.70
2019-02-23T09:24:53.301Z,8.50
2019-02-23T09:27:19.551Z,7.80
2019-02-23T09:29:45.851Z,7.85
2019-02-23T09:32:12.095Z,8.63
2019-02-23T09:34:38.353Z,8.70
2019-02-23T09:37:04.757Z,7.75
2019-02-23T09:39:31.032Z,8.70
2019-02-23T09:42:07.021Z,8.60
2019-02-23T09:44:25.405Z,8.80
2019-02-23T09:46:51.631Z,8.10
2019-02-23T09:49:17.922Z,7.55
2019-02-23T09:51:44.176Z,7.28
2019-02-23T09:54:10.423Z,7.78
2019-02-23T09:56:36.719Z,7.87
2019-02-23T09:59:02.959Z,7.50
2019-02-23T10:01:29.213Z,7.00
2019-02-23T10:03:55.516Z,7.62
2019-02-23T10:06:21.771Z,6.28
2019-02-23T10:08:48.033Z,7.60
2019-02-23T10:11:14.319Z,7.58
2019-02-23T10:13:40.574Z,6.92
2019-02-23T10:16:06.965Z,6.33
2019-02-23T10:18:33.243Z,6.10
2019-02-23T10:20:59.529Z,5.85
2019-02-23T10:23:25.776Z,6.33
2019-02-23T10:25:52.038Z,5.50
2019-02-23T10:28:18.302Z,5.70
2019-02-23T10:30:44.563Z,4.60
2019-02-23T10:33:10.825Z,5.33
2019-02-23T10:35:37.116Z,5.40
2019-02-23T10:38:03.475Z,5.15
2019-02-23T10:40:29.752Z,5.75
2019-02-23T10:42:56.016Z,5.47
2019-02-23T10:45:22.284Z,5.97
2019-02-23T10:47:50.193Z,5.42
2019-02-23T10:50:16.848Z,4.50
2019-02-23T10:52:43.308Z,5.20
2019-02-23T10:55:13.680Z,5.33
2019-02-23T10:57:40.030Z,4.83
2019-02-23T11:00:24.507Z,4.45
2019-02-23T11:02:50.859Z,4.03
2019-02-23T11:05:18.409Z,3.90
2019-02-23T11:07:44.788Z,3.45
2019-02-23T11:10:11.241Z,4.05
2019-02-23T11:12:37.623Z,3.85
2019-02-23T11:15:07.196Z,4.30
2019-02-23T11:17:33.439Z,4.67
2019-02-23T11:19:59.824Z,4.83
2019-02-23T11:22:26.221Z,4.67
2019-02-23T11:24:52.466Z,4.65
2019-02-23T11:27:18.844Z,4.70
2019-02-23T11:29:45.115Z,5.00
2019-02-23T11:32:11.364Z,4.47
2019-02-23T11:34:37.879Z,3.60
2019-02-23T11:37:04.138Z,3.27
2019-02-23T11:39:50.283Z,3.70
2019-02-23T11:42:16.538Z,3.22
2019-02-23T11:44:43.198Z,3.25
2019-02-23T11:47:09.542Z,3.50
2019-02-23T11:49:35.784Z,3.15
2019-02-23T11:52:02.164Z,3.35
2019-02-23T11:54:28.521Z,3.00
2019-02-23T11:56:54.779Z,2.80
2019-02-23T11:59:21.164Z,3.75
2019-02-23T12:01:47.441Z,3.52
2019-02-23T12:04:13.791Z,3.15
2019-02-23T12:06:40.053Z,3.25
2019-02-23T12:09:06.731Z,3.33
2019-02-23T12:11:32.983Z,3.00
2019-02-23T12:13:59.276Z,5.97
2019-02-23T12:16:25.546Z,5.97
2019-02-23T12:18:51.796Z,3.60
2019-02-23T12:21:18.071Z,3.75
2019-02-23T12:23:44.695Z,4.10
2019-02-23T12:26:10.949Z,3.80
2019-02-23T12:28:37.331Z,4.12
2019-02-23T12:31:03.589Z,3.92
2019-02-23T12:33:29.852Z,2.80
2019-02-23T12:35:56.155Z,2.90
2019-02-23T12:38:22.432Z,2.80
2019-02-23T12:40:48.693Z,3.10
2019-02-23T12:43:14.979Z,2.40
2019-02-23T12:45:41.241Z,2.50
2019-02-23T12:48:07.616Z,2.92
2019-02-23T12:50:33.887Z,3.00
2019-02-23T12:53:00.167Z,2.85
2019-02-23T12:55:26.453Z,4.87
2019-02-23T12:57:52.700Z,2.70
2019-02-23T13:00:19.227Z,2.90
2019-02-23T13:02:45.699Z,2.72
2019-02-23T13:05:12.461Z,2.42
2019-02-23T13:07:38.830Z,2.85
2019-02-23T13:10:11.406Z,2.22
2019-02-23T13:12:41.787Z,2.50
2019-02-23T13:15:24.159Z,2.45
2019-02-23T13:18:09.291Z,2.98
2019-02-23T13:20:51.363Z,2.77
2019-02-23T13:23:24.188Z,2.45
2019-02-23T13:26:06.542Z,2.60
2019-02-23T13:29:11.608Z,2.50
2019-02-23T13:31:53.607Z,2.47
2019-02-23T13:34:32.828Z,2.72
2019-02-23T13:37:25.782Z,2.30
2019-02-23T13:40:01.397Z,2.35
2019-02-23T13:42:55.422Z,2.62
2019-02-23T13:45:37.756Z,2.33
2019-02-23T13:48:21.214Z,2.80
2019-02-23T13:50:57.632Z,2.50
2019-02-23T13:53:56.213Z,2.47
2019-02-23T13:56:39.144Z,2.35
2019-02-23T13:59:29.365Z,2.60
2019-02-23T14:02:08.367Z,2.70
2019-02-23T14:04:50.483Z,2.35
2019-02-23T14:07:37.226Z,2.80
2019-02-23T14:10:12.846Z,2.17
2019-02-23T14:13:09.848Z,2.60
2019-02-23T14:15:42.536Z,2.80
2019-02-23T14:18:30.931Z,2.50
2019-02-23T14:21:16.322Z,2.60
2019-02-23T14:24:02.982Z,2.40
2019-02-23T14:26:54.522Z,2.27
2019-02-23T14:29:33.941Z,2.60
2019-02-23T14:32:04.002Z,2.80
2019-02-23T14:34:57.920Z,2.70
2019-02-23T14:37:34.220Z,2.77
2019-02-23T14:40:25.684Z,2.60
2019-02-23T14:43:13.848Z,2.53
2019-02-23T14:46:01.888Z,2.43
2019-02-23T14:48:51.997Z,2.80
2019-02-23T14:51:38.798Z,2.60
2019-02-23T14:54:20.391Z,2.40
2019-02-23T14:57:05.396Z,2.87
2019-02-23T14:59:38.439Z,3.80
2019-02-23T15:02:23.684Z,3.83
2019-02-23T15:05:08.858Z,3.90
2019-02-23T15:08:03.267Z,4.03
2019-02-23T15:10:47.940Z,4.43
2019-02-23T15:13:36.353Z,4.00
2019-02-23T15:16:23.036Z,4.00
2019-02-23T15:19:05.223Z,3.40
2019-02-23T15:21:35.280Z,3.67
2019-02-23T15:24:23.838Z,4.37
2019-02-23T15:26:56.664Z,3.97
2019-02-23T15:29:49.706Z,3.50
2019-02-23T15:32:53.293Z,3.47
2019-02-23T15:35:29.248Z,3.97
2019-02-23T15:38:20.015Z,4.20
2019-02-23T15:41:12.796Z,3.57
2019-02-23T15:43:47.770Z,4.03
2019-02-23T15:46:35.505Z,3.93
2019-02-23T15:49:11.633Z,3.77
2019-02-23T15:51:38.112Z,3.43
2019-02-23T15:54:04.442Z,3.20
2019-02-23T15:56:30.928Z,3.08
2019-02-23T15:58:57.240Z,3.27
2019-02-23T16:01:23.526Z,3.67
2019-02-23T16:03:49.804Z,3.35
2019-02-23T16:06:16.099Z,3.80
2019-02-23T16:08:42.497Z,3.65
2019-02-23T16:11:08.855Z,3.30
2019-02-23T16:13:35.127Z,4.40
2019-02-23T16:16:01.388Z,4.40
2019-02-23T16:18:27.779Z,3.85
2019-02-23T16:20:54.194Z,4.17
2019-02-23T16:23:20.537Z,3.70
2019-02-23T16:25:46.847Z,3.90
2019-02-23T16:28:13.232Z,3.95
2019-02-23T16:30:39.491Z,4.30
2019-02-23T16:33:05.743Z,3.83
2019-02-23T16:35:32.168Z,5.17
2019-02-23T16:37:58.427Z,9.55
2019-02-23T16:40:24.712Z,10.80
2019-02-23T16:42:51.104Z,7.97
2019-02-23T16:45:17.382Z,8.23
2019-02-23T16:47:43.758Z,8.30
2019-02-23T16:50:10.107Z,9.50
2019-02-23T16:52:36.439Z,8.35
2019-02-23T16:55:03.048Z,8.50
2019-02-23T16:57:29.381Z,6.92
2019-02-23T16:59:55.653Z,6.45
2019-02-23T17:02:21.960Z,5.78
2019-02-23T17:04:53.466Z,5.08
2019-02-23T17:07:16.414Z,6.40
2019-02-23T17:09:42.682Z,5.30
2019-02-23T17:12:08.915Z,5.75
2019-02-23T17:14:35.213Z,4.67
2019-02-23T17:17:01.527Z,4.75
2019-02-23T17:19:27.839Z,4.37
2019-02-23T17:21:54.104Z,4.65
2019-02-23T17:24:20.437Z,4.60
2019-02-23T17:26:46.770Z,4.50
2019-02-23T17:29:13.028Z,4.12
2019-02-23T17:31:39.299Z,3.55
2019-02-23T17:34:05.717Z,5.03
2019-02-23T17:36:32.026Z,4.10
2019-02-23T17:38:58.742Z,3.85
2019-02-23T17:41:26.018Z,3.70
2019-02-23T17:43:54.169Z,4.20
2019-02-23T17:46:20.443Z,4.50
2019-02-23T17:48:46.701Z,4.10
2019-02-23T17:51:13.496Z,4.37
2019-02-23T17:53:39.760Z,3.80
2019-02-23T17:56:12.178Z,4.25
2019-02-23T17:58:36.312Z,3.65
2019-02-23T18:01:04.092Z,4.15
2019-02-23T18:03:31.308Z,4.53
2019-02-23T18:05:57.697Z,4.58
2019-02-23T18:08:25.482Z,5.65
2019-02-23T18:10:51.736Z,5.00
2019-02-23T18:13:18.240Z,5.72
2019-02-23T18:15:44.663Z,7.60
2019-02-23T18:18:11.289Z,5.62
2019-02-23T18:20:37.557Z,7.67
2019-02-23T18:23:04.889Z,6.83
2019-02-23T18:25:31.597Z,10.43
2019-02-23T18:27:57.887Z,10.43
2019-02-23T18:30:24.236Z,7.60
2019-02-23T18:32:52.248Z,7.53
2019-02-23T18:35:19.730Z,7.62
2019-02-23T18:37:46.284Z,7.87
2019-02-23T18:40:12.563Z,7.10
2019-02-23T18:42:39.999Z,8.08
2019-02-23T18:45:28.450Z,7.22
2019-02-23T18:47:55.560Z,7.95
2019-02-23T18:50:21.867Z,7.65
2019-02-23T18:52:49.898Z,7.60
2019-02-23T18:55:16.989Z,7.90
2019-02-23T18:57:43.265Z,7.70
2019-02-23T19:00:11.284Z,8.15
2019-02-23T19:02:38.559Z,8.35
2019-02-23T19:05:08.547Z,7.90
2019-02-23T19:07:36.467Z,8.65
2019-02-23T19:10:06.583Z,8.75
2019-02-23T19:12:55.582Z,9.20
2019-02-23T19:15:22.343Z,7.58
2019-02-23T19:17:49.069Z,8.20
2019-02-23T19:20:15.468Z,7.72
2019-02-23T19:22:50.295Z,6.47
2019-02-23T19:25:18.043Z,7.12
2019-02-23T19:27:45.960Z,7.15
2019-02-23T19:30:14.052Z,6.65
2019-02-23T19:32:40.345Z,6.25
2019-02-23T19:35:07.823Z,7.20
2019-02-23T19:37:35.092Z,7.37
2019-02-23T19:40:02.424Z,8.25
2019-02-23T19:42:28.739Z,8.15
2019-02-23T19:44:55.030Z,7.85
2019-02-23T19:47:21.428Z,7.15
2019-02-23T19:49:47.755Z,7.95
2019-02-23T19:52:15.933Z,7.97
2019-02-23T19:54:42.323Z,7.70
2019-02-23T19:57:08.622Z,7.50
2019-02-23T19:59:34.984Z,7.85
2019-02-23T20:02:01.478Z,9.83
2019-02-23T20:04:27.944Z,9.13
2019-02-23T20:06:54.212Z,8.80
2019-02-23T20:09:20.531Z,10.00
2019-02-23T20:11:46.762Z,8.45
2019-02-23T20:14:13.033Z,9.45
2019-02-23T20:16:39.326Z,8.18
2019-02-23T20:19:05.599Z,8.05
2019-02-23T20:21:31.988Z,7.70
2019-02-23T20:23:58.300Z,8.10
2019-02-23T20:26:29.288Z,7.15
2019-02-23T20:28:55.567Z,6.70
2019-02-23T20:31:21.959Z,6.15
2019-02-23T20:33:48.247Z,6.03
2019-02-23T20:36:14.675Z,6.70
2019-02-23T20:38:40.948Z,7.00
2019-02-23T20:41:07.441Z,8.10
2019-02-23T20:43:33.809Z,7.47
2019-02-23T20:46:00.179Z,6.80
2019-02-23T20:48:26.452Z,8.15
2019-02-23T20:50:52.824Z,8.70
2019-02-23T20:53:19.182Z,8.93
2019-02-23T20:55:45.473Z,10.35
2019-02-23T20:58:11.749Z,8.78
2019-02-23T21:00:38.289Z,10.10
2019-02-23T21:03:04.535Z,10.50
2019-02-23T21:05:30.845Z,10.75
2019-02-23T21:07:57.223Z,9.95
2019-02-23T21:10:23.602Z,8.93
2019-02-23T21:12:50.002Z,10.00
2019-02-23T21:15:16.405Z,9.68
2019-02-23T21:17:42.740Z,9.70
2019-02-23T21:20:09.827Z,9.18
2019-02-23T21:22:36.276Z,10.40
2019-02-23T21:25:04.561Z,10.75
2019-02-23T21:27:30.846Z,9.53
2019-02-23T21:29:57.242Z,9.20
2019-02-23T21:32:23.515Z,9.60
2019-02-23T21:34:49.832Z,9.20
2019-02-23T21:37:16.121Z,9.88
2019-02-23T21:39:42.484Z,9.40
2019-02-23T21:42:08.797Z,8.80
2019-02-23T21:44:36.028Z,9.70
2019-02-23T21:47:02.410Z,8.60
2019-02-23T21:49:28.895Z,9.58
2019-02-23T21:51:55.156Z,9.13
2019-02-23T21:54:21.473Z,8.95
2019-02-23T21:56:47.778Z,9.55
2019-02-23T21:59:14.156Z,10.48
2019-02-23T22:01:40.451Z,9.03
2019-02-23T22:04:06.703Z,9.48
2019-02-23T22:06:33.004Z,10.10
2019-02-23T22:08:59.308Z,8.88
2019-02-23T22:11:25.613Z,9.75
2019-02-23T22:13:51.963Z,10.00
2019-02-23T22:16:18.380Z,10.23
2019-02-23T22:18:44.632Z,10.03
2019-02-23T22:21:10.893Z,9.95
2019-02-23T22:23:37.164Z,9.30
2019-02-23T22:26:03.566Z,9.40
2019-02-23T22:28:29.917Z,8.80
2019-02-23T22:30:56.208Z,9.60
2019-02-23T22:33:22.465Z,10.05
2019-02-23T22:35:49.037Z,9.35
2019-02-23T22:38:15.696Z,8.73
2019-02-23T22:40:42.065Z,9.38
2019-02-23T22:43:08.431Z,8.85
2019-02-23T22:45:34.720Z,8.53
2019-02-23T22:48:01.092Z,7.75
2019-02-23T22:50:27.407Z,8.08
2019-02-23T22:52:53.685Z,7.58
2019-02-23T22:55:20.076Z,8.25
2019-02-23T22:57:46.335Z,7.05
2019-02-23T23:00:14.664Z,7.58
2019-02-23T23:02:41.227Z,8.00
2019-02-23T23:05:07.723Z,8.15
2019-02-23T23:07:34.012Z,8.25
2019-02-23T23:10:00.383Z,7.67
2019-02-23T23:12:26.656Z,8.30
2019-02-23T23:14:52.926Z,7.97
2019-02-23T23:17:19.312Z,7.50
2019-02-23T23:19:46.507Z,8.88
2019-02-23T23:22:12.907Z,8.95
2019-02-23T23:24:39.169Z,15.38
2019-02-23T23:27:05.473Z,9.88
2019-02-23T23:29:31.836Z,9.35
2019-02-23T23:31:58.128Z,9.60
2019-02-23T23:34:24.437Z,8.88
2019-02-23T23:36:50.926Z,9.75
2019-02-23T23:39:17.620Z,13.18
2019-02-23T23:41:43.888Z,10.18
2019-02-23T23:44:10.156Z,9.43
2019-02-23T23:46:36.446Z,9.10
2019-02-23T23:49:02.719Z,9.25
2019-02-23T23:51:29.036Z,9.10
2019-02-23T23:53:55.414Z,8.98
2019-02-23T23:56:21.660Z,9.33
2019-02-23T23:58:47.957Z,7.80
